sensor_id;sensor_type;location;lat;lon;timestamp;temperature;humidity
12408;DHT22;6268;48.188;17.134;2023-09-12T00:02:11;21.50;99.90
12408;DHT22;6268;48.188;17.134;2023-09-12T00:04:40;21.50;99.90
12408;DHT22;6268;48.188;17.134;2023-09-12T00:07:09;21.50;99.90
12408;DHT22;6268;48.188;17.134;2023-09-12T00:09:37;21.60;99.90
12408;DHT22;6268;48.188;17.134;2023-09-12T00:12:06;21.70;99.90
12408;DHT22;6268;48.188;17.134;2023-09-12T00:14:35;21.80;99.90
12408;DHT22;6268;48.188;17.134;2023-09-12T00:17:04;21.80;99.90
12408;DHT22;6268;48.188;17.134;2023-09-12T00:19:32;21.60;99.90
12408;DHT22;6268;48.188;17.134;2023-09-12T00:22:02;21.50;99.90
12408;DHT22;6268;48.188;17.134;2023-09-12T00:24:31;21.40;99.90
12408;DHT22;6268;48.188;17.134;2023-09-12T00:27:00;21.50;99.90
12408;DHT22;6268;48.188;17.134;2023-09-12T00:29:28;21.50;99.90
12408;DHT22;6268;48.188;17.134;2023-09-12T00:31:57;21.40;99.90
12408;DHT22;6268;48.188;17.134;2023-09-12T00:34:25;21.50;99.90
12408;DHT22;6268;48.188;17.134;2023-09-12T00:36:54;21.40;99.90
12408;DHT22;6268;48.188;17.134;2023-09-12T00:39:24;21.30;99.90
12408;DHT22;6268;48.188;17.134;2023-09-12T00:41:52;21.30;99.90
12408;DHT22;6268;48.188;17.134;2023-09-12T00:44:21;21.40;99.90
12408;DHT22;6268;48.188;17.134;2023-09-12T00:46:49;21.30;99.90
12408;DHT22;6268;48.188;17.134;2023-09-12T00:49:19;21.20;99.90
12408;DHT22;6268;48.188;17.134;2023-09-12T00:51:50;21.30;99.90
12408;DHT22;6268;48.188;17.134;2023-09-12T00:54:18;21.20;99.90
12408;DHT22;6268;48.188;17.134;2023-09-12T00:56:49;21.30;99.90
12408;DHT22;6268;48.188;17.134;2023-09-12T00:59:18;21.40;99.90
12408;DHT22;6268;48.188;17.134;2023-09-12T01:01:47;21.30;99.90
12408;DHT22;6268;48.188;17.134;2023-09-12T01:04:16;21.20;99.90
12408;DHT22;6268;48.188;17.134;2023-09-12T01:06:59;21.10;99.90
12408;DHT22;6268;48.188;17.134;2023-09-12T01:09:28;21.10;99.90
12408;DHT22;6268;48.188;17.134;2023-09-12T01:11:58;21.10;99.90
12408;DHT22;6268;48.188;17.134;2023-09-12T01:14:27;21.20;99.90
12408;DHT22;6268;48.188;17.134;2023-09-12T01:16:56;21.20;99.90
12408;DHT22;6268;48.188;17.134;2023-09-12T01:19:25;21.30;99.90
12408;DHT22;6268;48.188;17.134;2023-09-12T01:22:07;21.30;99.90
12408;DHT22;6268;48.188;17.134;2023-09-12T01:27:46;21.20;99.90
12408;DHT22;6268;48.188;17.134;2023-09-12T01:30:17;21.10;99.90
12408;DHT22;6268;48.188;17.134;2023-09-12T01:32:47;21.20;99.90
12408;DHT22;6268;48.188;17.134;2023-09-12T01:35:15;21.20;99.90
12408;DHT22;6268;48.188;17.134;2023-09-12T01:37:44;21.10;99.90
12408;DHT22;6268;48.188;17.134;2023-09-12T01:40:11;21.00;99.90
12408;DHT22;6268;48.188;17.134;2023-09-12T01:42:45;21.00;99.90
12408;DHT22;6268;48.188;17.134;2023-09-12T01:45:17;21.00;99.90
12408;DHT22;6268;48.188;17.134;2023-09-12T01:47:50;20.80;99.90
12408;DHT22;6268;48.188;17.134;2023-09-12T01:50:19;20.80;99.90
12408;DHT22;6268;48.188;17.134;2023-09-12T01:52:49;20.80;99.90
12408;DHT22;6268;48.188;17.134;2023-09-12T01:55:18;20.80;99.90
12408;DHT22;6268;48.188;17.134;2023-09-12T01:57:48;20.90;99.90
12408;DHT22;6268;48.188;17.134;2023-09-12T02:00:18;20.90;99.90
12408;DHT22;6268;48.188;17.134;2023-09-12T02:02:47;20.90;99.90
12408;DHT22;6268;48.188;17.134;2023-09-12T02:05:16;20.90;99.90
12408;DHT22;6268;48.188;17.134;2023-09-12T02:07:46;21.00;99.90
12408;DHT22;6268;48.188;17.134;2023-09-12T02:10:15;20.90;99.90
12408;DHT22;6268;48.188;17.134;2023-09-12T02:12:44;20.90;99.90
12408;DHT22;6268;48.188;17.134;2023-09-12T02:15:13;20.90;99.90
12408;DHT22;6268;48.188;17.134;2023-09-12T02:17:42;20.80;99.90
12408;DHT22;6268;48.188;17.134;2023-09-12T02:20:11;20.80;99.90
12408;DHT22;6268;48.188;17.134;2023-09-12T02:22:39;20.80;99.90
12408;DHT22;6268;48.188;17.134;2023-09-12T02:25:08;20.80;99.90
12408;DHT22;6268;48.188;17.134;2023-09-12T02:27:37;20.90;99.90
12408;DHT22;6268;48.188;17.134;2023-09-12T02:30:06;20.90;99.90
12408;DHT22;6268;48.188;17.134;2023-09-12T02:32:36;20.80;99.90
12408;DHT22;6268;48.188;17.134;2023-09-12T02:35:05;20.80;99.90
12408;DHT22;6268;48.188;17.134;2023-09-12T02:37:34;20.70;99.90
12408;DHT22;6268;48.188;17.134;2023-09-12T02:40:03;20.80;99.90
12408;DHT22;6268;48.188;17.134;2023-09-12T02:42:32;20.80;99.90
12408;DHT22;6268;48.188;17.134;2023-09-12T02:45:01;20.80;99.90
12408;DHT22;6268;48.188;17.134;2023-09-12T02:47:30;20.80;99.90
12408;DHT22;6268;48.188;17.134;2023-09-12T02:49:59;20.80;99.90
12408;DHT22;6268;48.188;17.134;2023-09-12T02:52:28;20.80;99.90
12408;DHT22;6268;48.188;17.134;2023-09-12T02:54:56;20.70;99.90
12408;DHT22;6268;48.188;17.134;2023-09-12T02:57:25;20.80;99.90
12408;DHT22;6268;48.188;17.134;2023-09-12T02:59:53;20.70;99.90
12408;DHT22;6268;48.188;17.134;2023-09-12T03:02:22;20.70;99.90
12408;DHT22;6268;48.188;17.134;2023-09-12T03:04:50;20.70;99.90
12408;DHT22;6268;48.188;17.134;2023-09-12T03:07:21;20.60;99.90
12408;DHT22;6268;48.188;17.134;2023-09-12T03:09:49;20.50;99.90
12408;DHT22;6268;48.188;17.134;2023-09-12T03:12:18;20.50;99.90
12408;DHT22;6268;48.188;17.134;2023-09-12T03:14:46;20.60;99.90
12408;DHT22;6268;48.188;17.134;2023-09-12T03:17:15;20.50;99.90
12408;DHT22;6268;48.188;17.134;2023-09-12T03:19:43;20.60;99.90
12408;DHT22;6268;48.188;17.134;2023-09-12T03:22:12;20.60;99.90
12408;DHT22;6268;48.188;17.134;2023-09-12T03:24:42;20.50;99.90
12408;DHT22;6268;48.188;17.134;2023-09-12T03:27:12;20.60;99.90
12408;DHT22;6268;48.188;17.134;2023-09-12T03:29:40;20.50;99.90
12408;DHT22;6268;48.188;17.134;2023-09-12T03:32:09;20.40;99.90
12408;DHT22;6268;48.188;17.134;2023-09-12T03:34:37;20.50;99.90
12408;DHT22;6268;48.188;17.134;2023-09-12T03:37:06;20.40;99.90
12408;DHT22;6268;48.188;17.134;2023-09-12T03:39:35;20.40;99.90
12408;DHT22;6268;48.188;17.134;2023-09-12T03:42:05;20.30;99.90
12408;DHT22;6268;48.188;17.134;2023-09-12T03:44:34;20.30;99.90
12408;DHT22;6268;48.188;17.134;2023-09-12T03:47:03;20.30;99.90
12408;DHT22;6268;48.188;17.134;2023-09-12T03:49:32;20.30;99.90
12408;DHT22;6268;48.188;17.134;2023-09-12T03:52:00;20.30;99.90
12408;DHT22;6268;48.188;17.134;2023-09-12T03:54:31;20.20;99.90
12408;DHT22;6268;48.188;17.134;2023-09-12T03:56:59;20.30;99.90
12408;DHT22;6268;48.188;17.134;2023-09-12T03:59:29;20.40;99.90
12408;DHT22;6268;48.188;17.134;2023-09-12T04:01:58;20.30;99.90
12408;DHT22;6268;48.188;17.134;2023-09-12T04:04:26;20.10;99.90
12408;DHT22;6268;48.188;17.134;2023-09-12T04:06:55;20.10;99.90
12408;DHT22;6268;48.188;17.134;2023-09-12T04:09:23;20.00;99.90
12408;DHT22;6268;48.188;17.134;2023-09-12T04:11:52;20.00;99.90
12408;DHT22;6268;48.188;17.134;2023-09-12T04:14:20;20.00;99.90
12408;DHT22;6268;48.188;17.134;2023-09-12T04:16:50;20.00;99.90
12408;DHT22;6268;48.188;17.134;2023-09-12T04:19:19;20.00;99.90
12408;DHT22;6268;48.188;17.134;2023-09-12T04:21:47;20.00;99.90
12408;DHT22;6268;48.188;17.134;2023-09-12T04:24:16;19.90;99.90
12408;DHT22;6268;48.188;17.134;2023-09-12T04:26:44;19.90;99.90
12408;DHT22;6268;48.188;17.134;2023-09-12T04:29:13;20.00;99.90
12408;DHT22;6268;48.188;17.134;2023-09-12T04:31:42;20.00;99.90
12408;DHT22;6268;48.188;17.134;2023-09-12T04:34:12;20.00;99.90
12408;DHT22;6268;48.188;17.134;2023-09-12T04:36:40;20.00;99.90
12408;DHT22;6268;48.188;17.134;2023-09-12T04:39:09;20.00;99.90
12408;DHT22;6268;48.188;17.134;2023-09-12T04:41:39;19.90;99.90
12408;DHT22;6268;48.188;17.134;2023-09-12T04:44:08;19.80;99.90
12408;DHT22;6268;48.188;17.134;2023-09-12T04:46:36;19.80;99.90
12408;DHT22;6268;48.188;17.134;2023-09-12T04:49:07;19.90;99.90
12408;DHT22;6268;48.188;17.134;2023-09-12T04:51:37;20.00;99.90
12408;DHT22;6268;48.188;17.134;2023-09-12T04:54:06;19.80;99.90
12408;DHT22;6268;48.188;17.134;2023-09-12T04:56:34;20.00;99.90
12408;DHT22;6268;48.188;17.134;2023-09-12T04:59:03;20.30;99.90
12408;DHT22;6268;48.188;17.134;2023-09-12T05:01:33;20.40;99.90
12408;DHT22;6268;48.188;17.134;2023-09-12T05:04:02;20.60;99.90
12408;DHT22;6268;48.188;17.134;2023-09-12T05:06:31;20.90;99.90
12408;DHT22;6268;48.188;17.134;2023-09-12T05:09:01;21.00;99.90
12408;DHT22;6268;48.188;17.134;2023-09-12T05:11:30;21.10;99.90
12408;DHT22;6268;48.188;17.134;2023-09-12T05:13:58;21.30;99.90
12408;DHT22;6268;48.188;17.134;2023-09-12T05:16:27;21.60;99.90
12408;DHT22;6268;48.188;17.134;2023-09-12T05:18:55;22.00;99.90
12408;DHT22;6268;48.188;17.134;2023-09-12T05:21:24;22.40;99.90
12408;DHT22;6268;48.188;17.134;2023-09-12T05:23:53;22.70;99.90
12408;DHT22;6268;48.188;17.134;2023-09-12T05:26:23;23.00;99.90
12408;DHT22;6268;48.188;17.134;2023-09-12T05:28:51;23.40;99.90
12408;DHT22;6268;48.188;17.134;2023-09-12T05:31:20;23.50;99.90
12408;DHT22;6268;48.188;17.134;2023-09-12T05:33:49;23.70;99.90
12408;DHT22;6268;48.188;17.134;2023-09-12T05:36:17;23.70;99.90
12408;DHT22;6268;48.188;17.134;2023-09-12T05:38:46;23.90;99.90
12408;DHT22;6268;48.188;17.134;2023-09-12T05:41:14;24.20;99.90
12408;DHT22;6268;48.188;17.134;2023-09-12T05:43:44;24.60;99.90
12408;DHT22;6268;48.188;17.134;2023-09-12T05:46:12;24.60;99.90
12408;DHT22;6268;48.188;17.134;2023-09-12T05:48:41;25.00;99.90
12408;DHT22;6268;48.188;17.134;2023-09-12T05:51:10;25.50;99.90
12408;DHT22;6268;48.188;17.134;2023-09-12T05:53:38;25.90;99.90
12408;DHT22;6268;48.188;17.134;2023-09-12T05:56:07;26.20;99.90
12408;DHT22;6268;48.188;17.134;2023-09-12T05:58:35;26.30;99.90
12408;DHT22;6268;48.188;17.134;2023-09-12T06:01:10;26.50;99.90
12408;DHT22;6268;48.188;17.134;2023-09-12T06:03:39;27.00;99.90
12408;DHT22;6268;48.188;17.134;2023-09-12T06:06:07;27.00;99.90
12408;DHT22;6268;48.188;17.134;2023-09-12T06:08:36;27.40;99.90
12408;DHT22;6268;48.188;17.134;2023-09-12T06:11:05;27.80;99.60
12408;DHT22;6268;48.188;17.134;2023-09-12T06:13:33;27.80;98.10
12408;DHT22;6268;48.188;17.134;2023-09-12T06:16:04;27.90;97.70
12408;DHT22;6268;48.188;17.134;2023-09-12T06:18:34;28.30;95.00
12408;DHT22;6268;48.188;17.134;2023-09-12T06:21:03;28.00;94.80
12408;DHT22;6268;48.188;17.134;2023-09-12T06:23:36;28.40;95.40
12408;DHT22;6268;48.188;17.134;2023-09-12T06:26:04;28.30;94.10
12408;DHT22;6268;48.188;17.134;2023-09-12T06:28:33;28.10;96.20
12408;DHT22;6268;48.188;17.134;2023-09-12T06:31:01;28.50;94.30
12408;DHT22;6268;48.188;17.134;2023-09-12T06:33:30;28.70;94.10
12408;DHT22;6268;48.188;17.134;2023-09-12T06:36:00;28.30;94.70
12408;DHT22;6268;48.188;17.134;2023-09-12T06:38:29;28.50;94.30
12408;DHT22;6268;48.188;17.134;2023-09-12T06:40:58;29.20;92.70
12408;DHT22;6268;48.188;17.134;2023-09-12T06:43:26;28.60;92.10
12408;DHT22;6268;48.188;17.134;2023-09-12T06:45:55;28.10;94.30
12408;DHT22;6268;48.188;17.134;2023-09-12T06:48:23;29.10;91.80
12408;DHT22;6268;48.188;17.134;2023-09-12T06:50:54;29.10;91.00
12408;DHT22;6268;48.188;17.134;2023-09-12T06:53:23;29.00;91.80
12408;DHT22;6268;48.188;17.134;2023-09-12T06:55:52;29.10;90.90
12408;DHT22;6268;48.188;17.134;2023-09-12T06:58:20;29.20;90.70
12408;DHT22;6268;48.188;17.134;2023-09-12T07:00:49;28.20;90.80
12408;DHT22;6268;48.188;17.134;2023-09-12T07:03:18;27.70;90.10
12408;DHT22;6268;48.188;17.134;2023-09-12T07:05:46;27.30;91.30
12408;DHT22;6268;48.188;17.134;2023-09-12T07:08:15;28.10;90.30
12408;DHT22;6268;48.188;17.134;2023-09-12T07:10:46;27.90;90.50
12408;DHT22;6268;48.188;17.134;2023-09-12T07:13:14;28.00;90.70
12408;DHT22;6268;48.188;17.134;2023-09-12T07:15:43;28.90;91.30
12408;DHT22;6268;48.188;17.134;2023-09-12T07:18:12;30.10;86.60
12408;DHT22;6268;48.188;17.134;2023-09-12T07:20:42;31.00;82.80
12408;DHT22;6268;48.188;17.134;2023-09-12T07:23:10;30.70;80.80
12408;DHT22;6268;48.188;17.134;2023-09-12T07:25:40;30.00;82.50
12408;DHT22;6268;48.188;17.134;2023-09-12T07:28:10;30.40;81.20
12408;DHT22;6268;48.188;17.134;2023-09-12T07:30:38;30.30;81.30
12408;DHT22;6268;48.188;17.134;2023-09-12T07:33:07;30.30;81.90
12408;DHT22;6268;48.188;17.134;2023-09-12T07:35:36;30.50;80.30
12408;DHT22;6268;48.188;17.134;2023-09-12T07:38:04;31.20;78.30
12408;DHT22;6268;48.188;17.134;2023-09-12T07:40:33;32.00;74.80
12408;DHT22;6268;48.188;17.134;2023-09-12T07:43:01;32.30;71.50
12408;DHT22;6268;48.188;17.134;2023-09-12T07:45:31;31.70;73.00
12408;DHT22;6268;48.188;17.134;2023-09-12T07:48:06;31.10;74.60
12408;DHT22;6268;48.188;17.134;2023-09-12T07:50:35;31.70;73.80
12408;DHT22;6268;48.188;17.134;2023-09-12T07:53:10;32.50;71.00
12408;DHT22;6268;48.188;17.134;2023-09-12T07:55:39;32.80;69.50
12408;DHT22;6268;48.188;17.134;2023-09-12T07:58:13;32.30;67.10
12408;DHT22;6268;48.188;17.134;2023-09-12T08:00:43;31.90;70.20
12408;DHT22;6268;48.188;17.134;2023-09-12T08:03:11;33.00;67.50
12408;DHT22;6268;48.188;17.134;2023-09-12T08:05:40;34.00;64.80
12408;DHT22;6268;48.188;17.134;2023-09-12T08:08:09;34.10;63.00
12408;DHT22;6268;48.188;17.134;2023-09-12T08:10:40;34.60;60.80
12408;DHT22;6268;48.188;17.134;2023-09-12T08:13:09;33.90;61.80
12408;DHT22;6268;48.188;17.134;2023-09-12T08:15:37;34.60;60.80
12408;DHT22;6268;48.188;17.134;2023-09-12T08:18:08;32.90;62.10
12408;DHT22;6268;48.188;17.134;2023-09-12T08:20:37;31.80;65.90
12408;DHT22;6268;48.188;17.134;2023-09-12T08:23:05;32.80;64.10
12408;DHT22;6268;48.188;17.134;2023-09-12T08:25:34;32.20;66.10
12408;DHT22;6268;48.188;17.134;2023-09-12T08:28:03;32.70;63.50
12408;DHT22;6268;48.188;17.134;2023-09-12T08:30:31;32.10;65.30
12408;DHT22;6268;48.188;17.134;2023-09-12T08:33:00;32.10;66.90
12408;DHT22;6268;48.188;17.134;2023-09-12T08:35:32;32.50;67.10
12408;DHT22;6268;48.188;17.134;2023-09-12T08:38:00;33.00;64.50
12408;DHT22;6268;48.188;17.134;2023-09-12T08:40:29;33.00;64.20
12408;DHT22;6268;48.188;17.134;2023-09-12T08:42:58;34.10;62.10
12408;DHT22;6268;48.188;17.134;2023-09-12T08:45:27;34.00;61.70
12408;DHT22;6268;48.188;17.134;2023-09-12T08:47:58;34.30;61.30
12408;DHT22;6268;48.188;17.134;2023-09-12T08:50:27;34.30;61.80
12408;DHT22;6268;48.188;17.134;2023-09-12T08:53:01;34.40;60.10
12408;DHT22;6268;48.188;17.134;2023-09-12T08:55:35;33.80;61.10
12408;DHT22;6268;48.188;17.134;2023-09-12T08:58:05;34.10;60.40
12408;DHT22;6268;48.188;17.134;2023-09-12T09:00:34;34.60;59.50
12408;DHT22;6268;48.188;17.134;2023-09-12T09:03:04;34.60;59.20
12408;DHT22;6268;48.188;17.134;2023-09-12T09:05:35;34.60;59.10
12408;DHT22;6268;48.188;17.134;2023-09-12T09:08:08;33.40;60.40
12408;DHT22;6268;48.188;17.134;2023-09-12T09:10:36;33.90;60.90
12408;DHT22;6268;48.188;17.134;2023-09-12T09:13:17;34.80;59.80
12408;DHT22;6268;48.188;17.134;2023-09-12T09:15:46;35.20;58.50
12408;DHT22;6268;48.188;17.134;2023-09-12T09:18:15;34.80;59.30
12408;DHT22;6268;48.188;17.134;2023-09-12T09:20:43;35.30;58.80
12408;DHT22;6268;48.188;17.134;2023-09-12T09:23:18;35.80;57.70
12408;DHT22;6268;48.188;17.134;2023-09-12T09:25:52;34.90;58.20
12408;DHT22;6268;48.188;17.134;2023-09-12T09:28:21;35.10;58.50
12408;DHT22;6268;48.188;17.134;2023-09-12T09:30:51;34.40;58.30
12408;DHT22;6268;48.188;17.134;2023-09-12T09:33:22;34.40;58.80
12408;DHT22;6268;48.188;17.134;2023-09-12T09:36:02;33.60;59.30
12408;DHT22;6268;48.188;17.134;2023-09-12T09:38:34;32.60;62.50
12408;DHT22;6268;48.188;17.134;2023-09-12T09:41:06;32.70;61.50
12408;DHT22;6268;48.188;17.134;2023-09-12T09:43:35;32.90;61.50
12408;DHT22;6268;48.188;17.134;2023-09-12T09:46:03;33.20;61.70
12408;DHT22;6268;48.188;17.134;2023-09-12T09:48:32;34.10;59.50
12408;DHT22;6268;48.188;17.134;2023-09-12T09:51:02;34.40;59.50
12408;DHT22;6268;48.188;17.134;2023-09-12T09:53:33;35.10;58.80
12408;DHT22;6268;48.188;17.134;2023-09-12T09:56:11;35.50;57.60
12408;DHT22;6268;48.188;17.134;2023-09-12T09:58:46;34.80;57.80
12408;DHT22;6268;48.188;17.134;2023-09-12T10:01:18;34.90;58.00
12408;DHT22;6268;48.188;17.134;2023-09-12T10:03:48;35.20;57.70
12408;DHT22;6268;48.188;17.134;2023-09-12T10:06:18;35.10;58.00
12408;DHT22;6268;48.188;17.134;2023-09-12T10:08:51;34.70;58.10
12408;DHT22;6268;48.188;17.134;2023-09-12T10:11:23;35.10;57.80
12408;DHT22;6268;48.188;17.134;2023-09-12T10:13:54;33.80;58.80
12408;DHT22;6268;48.188;17.134;2023-09-12T10:16:24;34.20;58.90
12408;DHT22;6268;48.188;17.134;2023-09-12T10:18:58;34.20;59.50
12408;DHT22;6268;48.188;17.134;2023-09-12T10:21:30;34.80;57.50
12408;DHT22;6268;48.188;17.134;2023-09-12T10:24:03;35.20;57.00
12408;DHT22;6268;48.188;17.134;2023-09-12T10:26:31;35.70;56.30
12408;DHT22;6268;48.188;17.134;2023-09-12T10:29:02;35.60;55.90
12408;DHT22;6268;48.188;17.134;2023-09-12T10:31:32;35.20;56.50
12408;DHT22;6268;48.188;17.134;2023-09-12T10:34:02;35.00;56.60
12408;DHT22;6268;48.188;17.134;2023-09-12T10:36:34;34.90;57.00
12408;DHT22;6268;48.188;17.134;2023-09-12T10:39:06;34.90;56.90
12408;DHT22;6268;48.188;17.134;2023-09-12T10:41:38;34.80;56.50
12408;DHT22;6268;48.188;17.134;2023-09-12T10:44:09;34.70;56.30
12408;DHT22;6268;48.188;17.134;2023-09-12T10:46:39;34.90;56.50
12408;DHT22;6268;48.188;17.134;2023-09-12T10:49:08;35.10;56.60
12408;DHT22;6268;48.188;17.134;2023-09-12T10:51:38;35.30;56.50
12408;DHT22;6268;48.188;17.134;2023-09-12T10:54:13;35.40;56.30
12408;DHT22;6268;48.188;17.134;2023-09-12T10:56:42;35.10;56.40
12408;DHT22;6268;48.188;17.134;2023-09-12T10:59:13;34.00;57.50
12408;DHT22;6268;48.188;17.134;2023-09-12T11:01:43;34.00;57.50
12408;DHT22;6268;48.188;17.134;2023-09-12T11:04:32;34.00;57.50
12408;DHT22;6268;48.188;17.134;2023-09-12T11:07:01;33.80;58.50
12408;DHT22;6268;48.188;17.134;2023-09-12T11:09:45;33.40;58.10
12408;DHT22;6268;48.188;17.134;2023-09-12T11:12:34;32.80;59.60
12408;DHT22;6268;48.188;17.134;2023-09-12T11:15:04;33.10;58.70
12408;DHT22;6268;48.188;17.134;2023-09-12T11:17:37;33.40;58.40
12408;DHT22;6268;48.188;17.134;2023-09-12T11:20:07;33.40;59.30
12408;DHT22;6268;48.188;17.134;2023-09-12T11:22:39;33.10;59.50
12408;DHT22;6268;48.188;17.134;2023-09-12T11:25:23;32.70;60.30
12408;DHT22;6268;48.188;17.134;2023-09-12T11:28:03;32.60;60.30
12408;DHT22;6268;48.188;17.134;2023-09-12T11:30:32;32.70;59.80
12408;DHT22;6268;48.188;17.134;2023-09-12T11:33:04;32.00;60.80
12408;DHT22;6268;48.188;17.134;2023-09-12T11:35:37;31.50;61.10
12408;DHT22;6268;48.188;17.134;2023-09-12T11:38:10;31.50;62.00
12408;DHT22;6268;48.188;17.134;2023-09-12T11:40:44;31.80;61.00
12408;DHT22;6268;48.188;17.134;2023-09-12T11:43:24;31.80;60.60
12408;DHT22;6268;48.188;17.134;2023-09-12T11:45:54;31.90;61.20
12408;DHT22;6268;48.188;17.134;2023-09-12T11:48:22;31.80;62.20
12408;DHT22;6268;48.188;17.134;2023-09-12T11:50:53;31.70;63.10
12408;DHT22;6268;48.188;17.134;2023-09-12T11:53:24;31.70;63.80
12408;DHT22;6268;48.188;17.134;2023-09-12T11:55:57;32.30;62.60
12408;DHT22;6268;48.188;17.134;2023-09-12T11:58:27;32.70;61.90
12408;DHT22;6268;48.188;17.134;2023-09-12T12:00:57;33.10;60.70
12408;DHT22;6268;48.188;17.134;2023-09-12T12:03:27;33.30;60.90
12408;DHT22;6268;48.188;17.134;2023-09-12T12:05:56;33.50;60.50
12408;DHT22;6268;48.188;17.134;2023-09-12T12:08:25;33.50;60.40
12408;DHT22;6268;48.188;17.134;2023-09-12T12:11:00;33.20;61.00
12408;DHT22;6268;48.188;17.134;2023-09-12T12:13:28;32.20;63.10
12408;DHT22;6268;48.188;17.134;2023-09-12T12:15:57;31.60;65.50
12408;DHT22;6268;48.188;17.134;2023-09-12T12:18:26;31.40;66.40
12408;DHT22;6268;48.188;17.134;2023-09-12T12:20:55;31.30;65.90
12408;DHT22;6268;48.188;17.134;2023-09-12T12:23:23;31.10;66.40
12408;DHT22;6268;48.188;17.134;2023-09-12T12:25:52;31.00;67.00
12408;DHT22;6268;48.188;17.134;2023-09-12T12:28:22;30.90;67.50
12408;DHT22;6268;48.188;17.134;2023-09-12T12:30:52;30.90;68.40
12408;DHT22;6268;48.188;17.134;2023-09-12T12:33:23;31.00;69.30
12408;DHT22;6268;48.188;17.134;2023-09-12T12:36:12;30.90;69.70
12408;DHT22;6268;48.188;17.134;2023-09-12T12:38:40;30.90;68.60
12408;DHT22;6268;48.188;17.134;2023-09-12T12:41:23;30.90;68.90
12408;DHT22;6268;48.188;17.134;2023-09-12T12:44:01;30.90;68.20
12408;DHT22;6268;48.188;17.134;2023-09-12T12:46:31;30.90;68.40
12408;DHT22;6268;48.188;17.134;2023-09-12T12:48:59;30.90;67.90
12408;DHT22;6268;48.188;17.134;2023-09-12T12:51:28;30.70;68.10
12408;DHT22;6268;48.188;17.134;2023-09-12T12:54:04;30.50;69.40
12408;DHT22;6268;48.188;17.134;2023-09-12T12:56:33;30.70;69.50
12408;DHT22;6268;48.188;17.134;2023-09-12T12:59:05;30.70;68.90
12408;DHT22;6268;48.188;17.134;2023-09-12T13:01:36;30.60;68.70
12408;DHT22;6268;48.188;17.134;2023-09-12T13:04:06;30.80;69.20
12408;DHT22;6268;48.188;17.134;2023-09-12T13:06:35;30.90;69.60
12408;DHT22;6268;48.188;17.134;2023-09-12T13:09:05;30.70;69.90
12408;DHT22;6268;48.188;17.134;2023-09-12T13:11:36;30.70;70.10
12408;DHT22;6268;48.188;17.134;2023-09-12T13:14:07;30.80;70.20
12408;DHT22;6268;48.188;17.134;2023-09-12T13:16:39;30.90;69.30
12408;DHT22;6268;48.188;17.134;2023-09-12T13:19:09;30.90;69.60
12408;DHT22;6268;48.188;17.134;2023-09-12T13:21:39;31.00;69.80
12408;DHT22;6268;48.188;17.134;2023-09-12T13:24:10;31.00;70.60
12408;DHT22;6268;48.188;17.134;2023-09-12T13:26:40;30.80;70.10
12408;DHT22;6268;48.188;17.134;2023-09-12T13:29:10;30.80;71.00
12408;DHT22;6268;48.188;17.134;2023-09-12T13:31:39;30.70;71.50
12408;DHT22;6268;48.188;17.134;2023-09-12T13:34:07;30.70;71.20
12408;DHT22;6268;48.188;17.134;2023-09-12T13:36:36;30.80;72.20
12408;DHT22;6268;48.188;17.134;2023-09-12T13:39:05;30.70;72.50
12408;DHT22;6268;48.188;17.134;2023-09-12T13:41:34;30.80;73.30
12408;DHT22;6268;48.188;17.134;2023-09-12T13:44:02;30.70;72.20
12408;DHT22;6268;48.188;17.134;2023-09-12T13:46:32;30.60;71.80
12408;DHT22;6268;48.188;17.134;2023-09-12T13:49:00;30.50;72.10
12408;DHT22;6268;48.188;17.134;2023-09-12T13:51:30;30.50;72.30
12408;DHT22;6268;48.188;17.134;2023-09-12T13:53:59;30.40;72.10
12408;DHT22;6268;48.188;17.134;2023-09-12T13:56:28;30.50;72.10
12408;DHT22;6268;48.188;17.134;2023-09-12T13:58:56;30.50;71.90
12408;DHT22;6268;48.188;17.134;2023-09-12T14:01:25;30.50;71.30
12408;DHT22;6268;48.188;17.134;2023-09-12T14:04:06;30.40;71.40
12408;DHT22;6268;48.188;17.134;2023-09-12T14:06:35;30.30;70.90
12408;DHT22;6268;48.188;17.134;2023-09-12T14:09:04;30.40;71.50
12408;DHT22;6268;48.188;17.134;2023-09-12T14:11:34;30.30;71.80
12408;DHT22;6268;48.188;17.134;2023-09-12T14:14:03;30.30;72.30
12408;DHT22;6268;48.188;17.134;2023-09-12T14:16:35;30.30;72.80
12408;DHT22;6268;48.188;17.134;2023-09-12T14:19:05;30.30;73.00
12408;DHT22;6268;48.188;17.134;2023-09-12T14:21:35;30.40;72.50
12408;DHT22;6268;48.188;17.134;2023-09-12T14:24:05;30.30;72.10
12408;DHT22;6268;48.188;17.134;2023-09-12T14:26:34;30.20;72.60
12408;DHT22;6268;48.188;17.134;2023-09-12T14:29:04;30.30;72.50
12408;DHT22;6268;48.188;17.134;2023-09-12T14:31:34;30.40;72.60
12408;DHT22;6268;48.188;17.134;2023-09-12T14:34:06;30.40;73.10
12408;DHT22;6268;48.188;17.134;2023-09-12T14:36:35;30.30;74.20
12408;DHT22;6268;48.188;17.134;2023-09-12T14:39:04;30.30;73.90
12408;DHT22;6268;48.188;17.134;2023-09-12T14:41:33;30.30;74.00
12408;DHT22;6268;48.188;17.134;2023-09-12T14:44:01;30.30;74.00
12408;DHT22;6268;48.188;17.134;2023-09-12T14:46:30;30.20;74.50
12408;DHT22;6268;48.188;17.134;2023-09-12T14:48:59;30.20;73.80
12408;DHT22;6268;48.188;17.134;2023-09-12T14:51:30;30.30;73.10
12408;DHT22;6268;48.188;17.134;2023-09-12T14:54:01;30.40;74.20
12408;DHT22;6268;48.188;17.134;2023-09-12T14:56:31;30.40;73.70
12408;DHT22;6268;48.188;17.134;2023-09-12T14:58:59;30.30;74.30
12408;DHT22;6268;48.188;17.134;2023-09-12T15:01:28;30.30;75.40
12408;DHT22;6268;48.188;17.134;2023-09-12T15:03:57;30.40;73.90
12408;DHT22;6268;48.188;17.134;2023-09-12T15:06:26;30.30;73.30
12408;DHT22;6268;48.188;17.134;2023-09-12T15:08:57;30.30;73.10
12408;DHT22;6268;48.188;17.134;2023-09-12T15:11:25;30.30;73.00
12408;DHT22;6268;48.188;17.134;2023-09-12T15:13:53;30.30;73.30
12408;DHT22;6268;48.188;17.134;2023-09-12T15:16:22;30.30;73.50
12408;DHT22;6268;48.188;17.134;2023-09-12T15:18:53;30.30;73.50
12408;DHT22;6268;48.188;17.134;2023-09-12T15:21:21;30.30;73.10
12408;DHT22;6268;48.188;17.134;2023-09-12T15:23:50;30.20;73.50
12408;DHT22;6268;48.188;17.134;2023-09-12T15:26:19;30.30;74.40
12408;DHT22;6268;48.188;17.134;2023-09-12T15:28:48;30.10;74.30
12408;DHT22;6268;48.188;17.134;2023-09-12T15:31:16;30.10;74.80
12408;DHT22;6268;48.188;17.134;2023-09-12T15:33:46;30.00;75.60
12408;DHT22;6268;48.188;17.134;2023-09-12T15:36:14;30.00;75.80
12408;DHT22;6268;48.188;17.134;2023-09-12T15:38:43;29.90;76.00
12408;DHT22;6268;48.188;17.134;2023-09-12T15:41:11;29.80;76.10
12408;DHT22;6268;48.188;17.134;2023-09-12T15:43:42;29.80;76.50
12408;DHT22;6268;48.188;17.134;2023-09-12T15:46:11;29.80;76.00
12408;DHT22;6268;48.188;17.134;2023-09-12T15:48:58;29.80;76.40
12408;DHT22;6268;48.188;17.134;2023-09-12T15:51:27;29.80;76.60